Time;durP1;ratioP1;P1;durP2;ratioP2;P2;SDS_P1;SDS_P2;PMS_P1;PMS_P2;Temp;Humidity;BMP_temperature;BMP_pressure;BME280_temperature;BME280_humidity;BME280_pressure;Samples;Min_cycle;Max_cycle;Signal;HPM_P1;HPM_P2
2021/05/18 00:00:33;;;;;;;6.03;5.40;;;13.90;99.60;;;;;;5014648;28;20389;-57
2021/05/18 00:03:00;;;;;;;5.75;5.20;;;14.10;99.70;;;;;;5014609;28;20021;-57
2021/05/18 00:05:28;;;;;;;7.68;5.00;;;14.30;99.10;;;;;;4996959;28;20056;-54
2021/05/18 00:08:01;;;;;;;4.60;4.20;;;14.40;98.80;;;;;;4996851;28;20062;-56
2021/05/18 00:13:21;;;;;;;5.85;5.25;;;14.60;98.50;;;;;;5014799;28;20438;-51
2021/05/18 00:15:50;;;;;;;6.50;5.45;;;14.60;98.80;;;;;;4996948;28;20026;-53
2021/05/18 00:18:18;;;;;;;4.93;4.47;;;14.70;98.90;;;;;;5014324;28;20018;-52
2021/05/18 00:20:45;;;;;;;6.57;4.40;;;14.80;98.40;;;;;;5013903;28;20029;-52
2021/05/18 00:23:13;;;;;;;5.10;4.70;;;14.90;97.80;;;;;;5013977;28;20414;-54
2021/05/18 00:25:41;;;;;;;6.35;4.60;;;15.10;98.10;;;;;;5014153;28;20028;-57
2021/05/18 00:28:09;;;;;;;4.97;4.57;;;15.10;97.70;;;;;;5014012;28;20108;-56
2021/05/18 00:30:37;;;;;;;5.05;4.55;;;15.30;98.30;;;;;;5014224;28;20021;-55
2021/05/18 00:33:16;;;;;;;7.15;4.60;;;15.40;97.40;;;;;;5013766;28;20038;-54
2021/05/18 00:35:44;;;;;;;5.78;5.28;;;15.50;97.90;;;;;;5013969;28;20359;-57
2021/05/18 00:38:14;;;;;;;5.40;4.50;;;15.60;97.40;;;;;;5013855;28;20085;-54
2021/05/18 00:40:43;;;;;;;5.23;4.53;;;15.50;97.20;;;;;;5013850;28;20022;-55
2021/05/18 00:43:12;;;;;;;4.95;4.57;;;15.40;97.10;;;;;;5013900;28;20627;-49
2021/05/18 00:45:46;;;;;;;4.65;4.35;;;15.40;97.00;;;;;;5013766;28;20030;-56
2021/05/18 00:48:15;;;;;;;4.43;4.05;;;15.50;97.20;;;;;;5013688;28;20037;-54
2021/05/18 00:50:45;;;;;;;4.53;3.70;;;15.60;96.70;;;;;;5013655;28;20091;-55
2021/05/18 00:53:13;;;;;;;4.95;4.32;;;15.60;96.50;;;;;;4996204;28;20502;-53
2021/05/18 00:58:33;;;;;;;5.90;4.13;;;16.00;96.60;;;;;;5013428;28;20033;-54
2021/05/18 01:01:11;;;;;;;4.53;3.80;;;16.10;96.60;;;;;;5013714;28;20080;-53
2021/05/18 01:03:39;;;;;;;4.10;3.80;;;15.90;95.80;;;;;;5013437;28;20036;-54
2021/05/18 01:08:55;;;;;;;4.18;3.88;;;16.00;95.50;;;;;;5013733;28;20026;-55
2021/05/18 01:11:29;;;;;;;4.63;4.20;;;16.20;95.60;;;;;;5013320;28;20029;-54
2021/05/18 01:14:01;;;;;;;4.43;4.05;;;16.50;95.60;;;;;;5013390;28;20438;-53
2021/05/18 01:16:31;;;;;;;4.72;4.32;;;16.60;95.40;;;;;;5013431;28;20029;-54
2021/05/18 01:18:59;;;;;;;5.70;4.60;;;16.90;95.20;;;;;;5013578;28;20100;-54
2021/05/18 01:21:26;;;;;;;4.40;4.10;;;16.90;94.20;;;;;;5013464;28;20022;-51
2021/05/18 01:23:54;;;;;;;5.00;4.60;;;16.90;94.50;;;;;;5013450;28;20025;-53
2021/05/18 01:26:23;;;;;;;8.60;4.20;;;16.80;94.30;;;;;;5013334;28;20431;-51
2021/05/18 01:28:51;;;;;;;4.28;3.88;;;16.80;94.80;;;;;;5013244;28;20072;-49
2021/05/18 01:31:24;;;;;;;4.25;3.95;;;17.00;94.30;;;;;;5013078;28;20037;-48
2021/05/18 01:33:54;;;;;;;4.32;3.90;;;17.10;94.30;;;;;;5013244;28;20025;-51
2021/05/18 01:36:23;;;;;;;6.25;4.18;;;17.00;93.80;;;;;;5013393;28;20026;-48
2021/05/18 01:44:11;;;;;;;4.55;4.07;;;17.20;93.10;;;;;;5013689;28;20025;-51
2021/05/18 01:46:39;;;;;;;5.78;4.70;;;17.20;93.40;;;;;;5013178;28;20032;-53
2021/05/18 01:49:12;;;;;;;7.13;4.60;;;17.30;93.50;;;;;;5013190;28;20061;-53
2021/05/18 01:51:42;;;;;;;5.35;4.40;;;17.40;93.70;;;;;;5013103;28;20494;-53
2021/05/18 01:54:16;;;;;;;5.20;4.70;;;17.40;92.80;;;;;;5013274;28;20494;-56
2021/05/18 01:56:54;;;;;;;5.63;4.97;;;17.30;93.10;;;;;;5013221;28;20026;-50
2021/05/18 01:59:23;;;;;;;4.28;3.97;;;17.20;92.60;;;;;;4995933;28;20026;-52
2021/05/18 02:01:55;;;;;;;4.43;4.13;;;17.40;92.70;;;;;;5012903;28;20030;-52
2021/05/18 02:04:31;;;;;;;5.05;4.65;;;17.50;92.50;;;;;;5013275;28;20294;-55
2021/05/18 02:07:00;;;;;;;4.78;4.22;;;17.70;93.10;;;;;;5012899;28;20034;-51
2021/05/18 02:09:28;;;;;;;6.78;4.80;;;18.00;92.80;;;;;;5014969;28;20034;-50
2021/05/18 02:11:55;;;;;;;5.03;4.63;;;18.10;92.40;;;;;;5016865;28;20029;-53
2021/05/18 02:16:56;;;;;;;4.50;4.20;;;17.90;92.30;;;;;;5016818;28;20170;-49
2021/05/18 02:19:35;;;;;;;4.95;4.45;;;18.00;92.40;;;;;;5016667;28;20029;-53
2021/05/18 02:24:48;;;;;;;6.13;4.78;;;18.00;91.80;;;;;;5016632;28;20026;-49
2021/05/18 02:27:16;;;;;;;5.32;4.70;;;18.20;92.10;;;;;;5016695;28;20030;-52
2021/05/18 02:29:43;;;;;;;5.47;4.97;;;18.30;92.40;;;;;;5016239;28;20045;-49
2021/05/18 02:32:10;;;;;;;4.95;4.55;;;18.20;92.20;;;;;;5016240;28;20054;-50
2021/05/18 02:34:38;;;;;;;8.40;5.28;;;18.10;92.50;;;;;;5016353;28;20022;-52
2021/05/18 02:37:05;;;;;;;5.45;4.95;;;18.20;93.00;;;;;;5016287;28;20071;-50
2021/05/18 02:39:33;;;;;;;5.32;4.90;;;18.40;92.30;;;;;;5016243;28;20052;-50
2021/05/18 02:42:00;;;;;;;5.25;4.75;;;18.20;92.30;;;;;;5016157;28;20478;-54
2021/05/18 02:44:45;;;;;;;7.03;5.80;;;18.40;92.30;;;;;;5016165;28;20026;-51
2021/05/18 02:49:59;;;;;;;5.53;5.03;;;18.60;92.20;;;;;;5016423;28;20029;-55
2021/05/18 02:52:26;;;;;;;6.07;5.47;;;18.70;92.00;;;;;;5015908;28;20037;-56
2021/05/18 02:54:56;;;;;;;6.00;4.95;;;18.90;92.00;;;;;;5015695;28;20483;-50
2021/05/18 02:57:34;;;;;;;5.55;5.15;;;18.80;91.80;;;;;;5015901;28;20073;-53
2021/05/18 03:00:14;;;;;;;5.82;4.78;;;18.80;91.40;;;;;;5015746;28;20132;-59
2021/05/18 03:02:41;;;;;;;5.22;4.82;;;18.80;91.30;;;;;;5015910;28;20026;-61
2021/05/18 03:05:10;;;;;;;5.25;4.75;;;18.70;92.10;;;;;;5015598;28;20030;-59
2021/05/18 03:07:38;;;;;;;6.18;5.10;;;18.90;91.90;;;;;;5015752;28;20030;-58
2021/05/18 03:10:07;;;;;;;5.88;5.22;;;19.10;92.30;;;;;;5015683;28;20018;-56
2021/05/18 03:12:34;;;;;;;5.75;5.20;;;19.00;91.70;;;;;;5015631;28;20149;-57
2021/05/18 03:15:02;;;;;;;6.30;4.85;;;19.30;92.00;;;;;;4998103;28;20022;-54
2021/05/18 03:17:31;;;;;;;5.07;4.57;;;19.50;91.30;;;;;;5015554;28;20190;-55
2021/05/18 03:19:59;;;;;;;6.97;5.00;;;19.50;91.50;;;;;;5015167;28;20105;-57
2021/05/18 03:22:26;;;;;;;5.78;5.28;;;19.10;91.60;;;;;;5015721;28;20022;-58
2021/05/18 03:24:53;;;;;;;7.18;5.40;;;19.20;92.00;;;;;;5015545;28;20022;-57
2021/05/18 03:27:23;;;;;;;5.72;5.13;;;19.40;91.90;;;;;;5015483;28;20100;-58
2021/05/18 03:29:51;;;;;;;5.15;4.65;;;19.20;91.30;;;;;;5015215;28;20045;-57
2021/05/18 03:35:05;;;;;;;4.40;3.90;;;19.20;91.60;;;;;;5015772;28;20029;-53
2021/05/18 03:40:14;;;;;;;4.93;3.90;;;19.00;92.00;;;;;;5015240;28;20076;-55
2021/05/18 03:42:47;;;;;;;3.75;3.45;;;19.00;91.80;;;;;;5015329;28;20022;-54
2021/05/18 03:45:24;;;;;;;4.95;4.60;;;19.10;91.80;;;;;;5014950;28;20401;-51
2021/05/18 04:04:25;;;;;;;5.13;4.63;;;18.80;92.10;;;;;;5014826;28;20068;-52
2021/05/18 04:18:16;;;;;;;4.82;4.43;;;18.70;93.40;;;;;;5014675;28;20517;-54
2021/05/18 04:23:27;;;;;;;5.00;4.70;;;18.60;93.00;;;;;;5014261;28;20077;-55
2021/05/18 04:40:19;;;;;;;5.45;4.90;;;18.60;93.60;;;;;;5014353;28;20546;-56
2021/05/18 05:01:21;;;;;;;5.35;4.80;;;18.00;93.80;;;;;;5013626;28;20029;-56
2021/05/18 05:04:15;;;;;;;4.43;4.03;;;18.00;94.10;;;;;;5013715;28;20073;-56
2021/05/18 05:06:52;;;;;;;12.48;4.53;;;18.00;94.10;;;;;;5013656;28;20026;-58
2021/05/18 05:09:24;;;;;;;6.00;4.75;;;18.00;94.30;;;;;;4996023;28;20053;-57
2021/05/18 05:14:37;;;;;;;5.28;4.78;;;17.80;94.40;;;;;;5013732;28;20025;-56
2021/05/18 05:17:07;;;;;;;4.93;4.47;;;17.80;94.60;;;;;;5013502;28;20022;-56
2021/05/18 05:19:34;;;;;;;;;;;17.70;94.30;;;;;;5013911;28;20535;-54
2021/05/18 05:22:03;;;;;;;5.20;4.80;;;17.60;94.40;;;;;;5013593;28;19912;-60
2021/05/18 05:24:31;;;;;;;5.63;4.50;;;17.70;95.10;;;;;;5013420;28;20033;-56
2021/05/18 05:26:58;;;;;;;5.10;4.75;;;17.60;95.00;;;;;;5013445;28;20049;-58
2021/05/18 05:29:26;;;;;;;5.63;5.00;;;17.50;94.90;;;;;;4995643;28;20084;-55
2021/05/18 05:31:55;;;;;;;4.80;4.50;;;17.60;95.20;;;;;;5013212;28;20046;-54
2021/05/18 05:34:23;;;;;;;4.97;4.60;;;17.50;95.00;;;;;;5012918;28;20026;-62
2021/05/18 05:36:51;;;;;;;4.72;4.40;;;17.40;95.60;;;;;;5013429;28;20029;-55
2021/05/18 05:41:46;;;;;;;4.97;4.53;;;17.20;96.00;;;;;;5013289;28;20541;-60
2021/05/18 05:44:13;;;;;;;5.45;4.55;;;17.20;95.80;;;;;;5016605;28;20025;-58
2021/05/18 05:46:41;;;;;;;5.47;4.95;;;17.10;95.60;;;;;;5017351;28;20030;-55
2021/05/18 05:49:08;;;;;;;4.55;4.25;;;17.10;96.00;;;;;;5017489;28;20038;-57
2021/05/18 05:51:35;;;;;;;4.47;4.18;;;17.00;96.30;;;;;;5017229;28;20029;-56
2021/05/18 05:54:03;;;;;;;5.55;5.03;;;17.00;96.30;;;;;;5017217;28;20076;-58
2021/05/18 05:56:32;;;;;;;4.70;4.30;;;16.90;96.70;;;;;;4999577;28;20478;-54
2021/05/18 05:59:01;;;;;;;6.05;4.70;;;16.80;97.10;;;;;;4999559;28;20018;-60
2021/05/18 06:01:32;;;;;;;5.32;4.93;;;16.70;97.10;;;;;;5016909;28;20041;-56
2021/05/18 06:04:00;;;;;;;5.60;5.05;;;16.60;97.30;;;;;;5016903;28;20409;-57
2021/05/18 06:06:28;;;;;;;5.15;4.88;;;16.60;97.10;;;;;;5016885;28;20478;-56
2021/05/18 06:08:55;;;;;;;5.68;5.03;;;16.50;97.40;;;;;;5016782;28;20037;-54
2021/05/18 06:12:17;;;;;;;5.38;5.00;;;16.50;97.30;;;;;;5016775;28;20479;-57
2021/05/18 06:36:56;;;;;;;6.10;5.72;;;15.60;99.10;;;;;;5016442;28;20033;-58
2021/05/18 06:42:31;;;;;;;5.35;5.00;;;15.40;99.50;;;;;;5016741;28;20037;-55
2021/05/18 06:49:41;;;;;;;5.20;4.82;;;14.90;99.90;;;;;;5016237;28;20038;-55
2021/05/18 06:52:08;;;;;;;8.07;4.57;;;14.80;99.90;;;;;;5016234;28;20037;-58
2021/05/18 06:54:35;;;;;;;5.07;4.60;;;14.70;99.90;;;;;;5015396;28;20045;-58
2021/05/18 06:57:06;;;;;;;5.55;4.90;;;14.60;99.90;;;;;;5016106;28;20022;-58
2021/05/18 07:02:18;;;;;;;8.48;6.18;;;14.50;99.90;;;;;;5015968;28;20057;-53
2021/05/18 07:04:47;;;;;;;17.17;8.73;;;14.50;99.90;;;;;;5015696;28;20116;-58
2021/05/18 07:07:20;;;;;;;17.77;9.05;;;14.40;99.90;;;;;;5015525;28;20410;-54
2021/05/18 07:09:48;;;;;;;6.93;5.70;;;14.40;99.90;;;;;;5015682;28;20029;-57
2021/05/18 07:12:15;;;;;;;12.43;7.18;;;14.30;99.90;;;;;;5015808;28;20522;-54
2021/05/18 07:14:43;;;;;;;7.28;5.90;;;14.20;99.90;;;;;;5015711;28;20018;-55
2021/05/18 07:17:10;;;;;;;8.70;6.07;;;14.20;99.90;;;;;;5015725;28;20045;-58
2021/05/18 07:19:37;;;;;;;9.27;6.90;;;14.10;99.90;;;;;;5015676;28;20018;-53
2021/05/18 07:22:07;;;;;;;6.95;6.00;;;14.00;99.90;;;;;;5015596;28;20537;-58
2021/05/18 07:24:35;;;;;;;14.50;8.15;;;14.00;99.90;;;;;;5015357;28;20029;-54
2021/05/18 07:27:06;;;;;;;7.80;6.25;;;13.90;99.90;;;;;;5015463;28;20033;-54
2021/05/18 07:29:33;;;;;;;12.57;8.40;;;13.90;99.90;;;;;;5015214;28;20030;-54
2021/05/18 07:32:01;;;;;;;11.48;7.65;;;13.90;99.90;;;;;;5015137;28;20053;-58
2021/05/18 07:34:29;;;;;;;10.48;7.90;;;13.80;99.90;;;;;;5015444;28;20021;-56
2021/05/18 07:36:57;;;;;;;8.40;7.32;;;13.70;99.90;;;;;;5015511;28;20101;-54
2021/05/18 07:39:25;;;;;;;9.13;7.00;;;13.70;99.90;;;;;;5015192;28;20022;-58
2021/05/18 07:41:52;;;;;;;26.63;14.95;;;13.60;99.90;;;;;;5015173;28;20018;-58
2021/05/18 07:44:20;;;;;;;9.57;8.57;;;13.80;99.90;;;;;;5015155;28;20029;-58
2021/05/18 07:46:47;;;;;;;9.00;8.13;;;13.70;99.90;;;;;;4997560;28;20025;-59
2021/05/18 07:49:23;;;;;;;7.80;7.18;;;13.60;99.90;;;;;;5014877;28;20096;-58
2021/05/18 08:05:29;;;;;;;6.55;5.90;;;13.30;99.90;;;;;;5014542;28;20022;-54
2021/05/18 08:07:56;;;;;;;7.60;7.10;;;13.30;99.90;;;;;;5013873;28;20030;-58
2021/05/18 08:12:58;;;;;;;9.07;8.20;;;13.10;99.90;;;;;;5014643;28;20105;-53
2021/05/18 10:36:38;;;;;;;16.48;15.50;;;11.60;99.90;;;;;;5016449;28;20022;-54
2021/05/18 10:39:22;;;;;;;16.92;15.95;;;11.60;99.90;;;;;;4998696;28;20022;-55
2021/05/18 10:41:50;;;;;;;17.38;16.45;;;11.60;99.90;;;;;;5016101;28;20036;-54
2021/05/18 10:44:18;;;;;;;18.65;17.55;;;11.70;99.90;;;;;;5015925;28;20022;-54
2021/05/18 10:47:00;;;;;;;18.38;17.10;;;11.70;99.90;;;;;;5016146;28;20026;-53
2021/05/18 10:49:35;;;;;;;18.38;17.20;;;11.70;99.90;;;;;;5015811;28;20018;-56
2021/05/18 10:52:10;;;;;;;19.27;18.02;;;11.70;99.90;;;;;;5015729;28;20553;-55
2021/05/18 10:54:47;;;;;;;17.95;16.85;;;11.70;99.90;;;;;;5015847;28;20026;-52
2021/05/18 10:57:20;;;;;;;18.00;16.90;;;11.80;99.90;;;;;;5015867;28;20475;-53
2021/05/18 10:59:57;;;;;;;16.45;15.60;;;11.80;99.90;;;;;;5015728;28;20099;-55
2021/05/18 11:02:40;;;;;;;17.67;16.42;;;11.80;99.90;;;;;;5015561;28;20482;-53
2021/05/18 11:05:12;;;;;;;30.75;25.05;;;11.90;99.90;;;;;;5015505;28;20498;-54
2021/05/18 11:07:41;;;;;;;24.02;21.60;;;11.90;99.90;;;;;;5015727;28;20029;-55
2021/05/18 11:10:14;;;;;;;19.75;18.20;;;11.80;99.90;;;;;;5015426;28;20029;-56
2021/05/18 11:12:54;;;;;;;22.83;20.83;;;11.80;99.90;;;;;;5015404;28;20037;-57
2021/05/18 11:15:27;;;;;;;22.23;20.38;;;11.80;99.90;;;;;;4997908;28;20028;-56
2021/05/18 11:17:56;;;;;;;19.52;17.92;;;11.70;99.90;;;;;;5015342;28;20485;-53
2021/05/18 11:23:24;;;;;;;20.67;19.23;;;11.60;99.90;;;;;;5015390;28;20026;-53
2021/05/18 11:26:08;;;;;;;24.13;22.52;;;11.60;99.90;;;;;;5015350;28;20064;-53
2021/05/18 11:28:38;;;;;;;20.40;19.10;;;11.60;99.90;;;;;;5015396;28;20030;-53
2021/05/18 11:31:09;;;;;;;23.05;21.63;;;11.50;99.90;;;;;;5014882;28;20026;-52
2021/05/18 11:33:41;;;;;;;20.15;18.83;;;11.50;99.90;;;;;;5015207;28;20504;-55
2021/05/18 11:36:16;;;;;;;22.70;21.05;;;11.40;99.90;;;;;;5015149;28;20426;-56
2021/05/18 11:38:54;;;;;;;24.73;23.13;;;11.40;99.90;;;;;;5015078;28;20018;-55
2021/05/18 11:41:26;;;;;;;22.92;21.52;;;11.40;99.90;;;;;;4996861;28;20026;-54
2021/05/18 11:43:58;;;;;;;21.15;19.90;;;11.30;99.90;;;;;;5014822;28;20033;-54
2021/05/18 11:46:28;;;;;;;20.25;19.02;;;11.30;99.90;;;;;;5015078;28;20037;-56
2021/05/18 11:49:06;;;;;;;23.05;21.58;;;11.30;99.90;;;;;;5014451;28;20057;-50
2021/05/18 11:51:53;;;;;;;22.20;21.00;;;11.30;99.90;;;;;;4997217;28;20029;-56
2021/05/18 11:54:25;;;;;;;21.33;20.13;;;11.20;99.90;;;;;;4997418;28;20074;-53
2021/05/18 11:56:53;;;;;;;21.65;20.35;;;11.20;99.90;;;;;;5014594;28;20022;-52
2021/05/18 11:59:22;;;;;;;22.10;20.70;;;11.20;99.90;;;;;;5014432;28;20022;-51
2021/05/18 12:01:58;;;;;;;22.63;21.13;;;11.20;99.90;;;;;;5014941;28;20379;-56
2021/05/18 12:04:28;;;;;;;24.02;21.90;;;11.20;99.90;;;;;;5014559;28;20032;-53
2021/05/18 12:06:56;;;;;;;23.58;22.17;;;11.20;99.90;;;;;;5014772;28;20032;-53
2021/05/18 12:09:23;;;;;;;25.48;24.08;;;11.10;99.90;;;;;;5014589;28;20407;-52
2021/05/18 12:12:05;;;;;;;24.20;22.80;;;11.10;99.90;;;;;;5014438;28;20029;-51
2021/05/18 12:14:40;;;;;;;25.42;23.88;;;11.10;99.90;;;;;;5014229;28;20431;-55
2021/05/18 12:17:07;;;;;;;26.55;24.77;;;11.00;99.90;;;;;;5014428;28;20542;-52
2021/05/18 12:19:38;;;;;;;26.77;25.27;;;11.00;99.90;;;;;;5014229;28;20058;-53
2021/05/18 12:22:07;;;;;;;26.80;25.30;;;11.00;99.90;;;;;;5014050;28;20026;-50
2021/05/18 12:24:43;;;;;;;27.85;26.25;;;10.90;99.90;;;;;;5014222;28;20056;-51
2021/05/18 12:27:11;;;;;;;27.30;25.80;;;10.90;99.90;;;;;;5014073;28;20494;-52
2021/05/18 12:29:40;;;;;;;27.98;26.30;;;10.90;99.90;;;;;;4996096;28;20034;-54
2021/05/18 12:32:26;;;;;;;27.95;26.25;;;10.90;99.90;;;;;;5013815;28;20045;-53
2021/05/18 12:34:59;;;;;;;28.88;27.23;;;10.80;99.90;;;;;;4996786;28;20084;-54
2021/05/18 12:37:45;;;;;;;29.27;27.58;;;10.80;99.90;;;;;;5013894;28;20018;-50
2021/05/18 12:40:23;;;;;;;29.25;27.50;;;10.80;99.90;;;;;;5013801;28;20418;-50
2021/05/18 12:42:50;;;;;;;29.98;28.17;;;10.70;99.90;;;;;;5013849;28;20080;-50
2021/05/18 12:45:18;;;;;;;30.88;29.17;;;10.70;99.90;;;;;;5013812;28;20431;-48
2021/05/18 12:47:52;;;;;;;31.75;29.85;;;10.70;99.90;;;;;;5013760;28;20105;-53
2021/05/18 12:50:19;;;;;;;30.88;29.08;;;10.70;99.90;;;;;;5013584;28;20088;-50
2021/05/18 12:52:51;;;;;;;31.85;30.15;;;10.70;99.90;;;;;;5013214;28;20022;-50
2021/05/18 12:55:31;;;;;;;32.38;30.58;;;10.70;99.90;;;;;;5013810;28;20566;-54
2021/05/18 12:58:08;;;;;;;32.63;30.73;;;10.70;99.90;;;;;;5013701;28;20030;-52
2021/05/18 13:00:41;;;;;;;34.75;32.28;;;10.70;99.90;;;;;;5013766;28;20066;-52
2021/05/18 13:03:19;;;;;;;32.58;30.65;;;10.70;99.90;;;;;;5013812;28;20030;-51
2021/05/18 13:05:54;;;;;;;32.67;30.77;;;10.70;99.90;;;;;;5013592;28;20022;-49
2021/05/18 13:08:23;;;;;;;33.35;31.33;;;10.70;99.90;;;;;;5013511;28;20026;-51
2021/05/18 13:11:06;;;;;;;32.90;30.80;;;10.70;99.90;;;;;;5013317;28;20117;-50
2021/05/18 13:13:39;;;;;;;32.72;30.92;;;10.70;99.90;;;;;;5013841;28;20026;-54
2021/05/18 13:16:20;;;;;;;33.00;31.05;;;10.70;99.90;;;;;;5013299;28;20025;-56
2021/05/18 13:19:06;;;;;;;32.25;30.27;;;10.80;99.90;;;;;;5013115;28;20030;-50
2021/05/18 13:21:50;;;;;;;32.35;30.50;;;11.00;99.90;;;;;;5013391;28;20036;-52
2021/05/18 13:27:17;;;;;;;33.03;31.05;;;11.10;99.90;;;;;;4969704;28;20074;-52
2021/05/18 13:29:44;;;;;;;32.88;30.98;;;11.10;99.90;;;;;;5013088;28;20175;-51
2021/05/18 13:32:11;;;;;;;33.53;31.33;;;11.10;99.90;;;;;;4995465;28;20560;-49
2021/05/18 13:34:39;;;;;;;32.58;30.88;;;11.00;99.90;;;;;;5013201;28;20030;-53
2021/05/18 13:37:06;;;;;;;32.85;30.65;;;11.00;99.90;;;;;;5013143;28;20021;-49
2021/05/18 13:39:33;;;;;;;32.88;31.05;;;10.90;99.90;;;;;;5013018;28;20029;-55
2021/05/18 13:42:02;;;;;;;32.95;31.15;;;10.90;99.90;;;;;;5013081;28;20068;-52
2021/05/18 13:44:29;;;;;;;32.95;31.05;;;10.90;99.90;;;;;;5013042;28;20022;-50
2021/05/18 13:46:57;;;;;;;33.30;31.23;;;10.80;99.90;;;;;;5012960;28;20127;-51
2021/05/18 13:49:25;;;;;;;35.97;33.58;;;10.70;99.90;;;;;;5013164;28;20025;-52
2021/05/18 13:51:52;;;;;;;34.60;32.70;;;10.80;99.90;;;;;;5013022;28;20072;-54
2021/05/18 13:54:20;;;;;;;35.08;32.90;;;10.70;99.90;;;;;;5013108;28;20018;-51
2021/05/18 13:56:47;;;;;;;36.08;33.55;;;10.70;99.90;;;;;;5013076;28;20014;-51
2021/05/18 13:59:14;;;;;;;37.28;35.03;;;10.70;99.90;;;;;;5013060;28;20042;-50
2021/05/18 14:01:42;;;;;;;37.45;34.90;;;10.60;99.90;;;;;;5013013;28;20026;-52
2021/05/18 14:04:09;;;;;;;38.50;36.20;;;10.60;99.90;;;;;;5013028;28;20037;-50
2021/05/18 14:06:52;;;;;;;37.40;35.05;;;10.50;99.90;;;;;;5016871;28;20030;-49
2021/05/18 14:09:19;;;;;;;37.20;34.83;;;10.40;99.90;;;;;;5016923;28;20058;-50
2021/05/18 14:11:47;;;;;;;38.13;35.50;;;10.40;99.90;;;;;;5016569;28;20062;-49
2021/05/18 14:14:14;;;;;;;37.58;35.25;;;10.40;99.90;;;;;;5016844;28;20101;-51
2021/05/18 14:16:41;;;;;;;38.33;36.03;;;10.40;99.90;;;;;;5016758;28;20371;-49
2021/05/18 14:19:09;;;;;;;39.78;37.28;;;10.30;99.90;;;;;;5016390;28;20022;-56
2021/05/18 14:21:36;;;;;;;39.22;36.63;;;10.30;99.90;;;;;;5016549;28;20030;-51
2021/05/18 14:24:13;;;;;;;40.65;37.80;;;10.30;99.90;;;;;;5016637;28;20109;-52
2021/05/18 14:26:41;;;;;;;38.38;35.88;;;10.30;99.90;;;;;;5016446;28;20483;-49
2021/05/18 14:29:08;;;;;;;38.53;36.17;;;10.20;99.90;;;;;;5016418;28;20018;-54
2021/05/18 14:31:35;;;;;;;39.10;36.67;;;10.20;99.90;;;;;;5016118;28;20053;-51
2021/05/18 14:34:03;;;;;;;39.53;37.03;;;10.10;99.90;;;;;;5016539;28;20022;-51
2021/05/18 14:36:30;;;;;;;40.67;38.28;;;10.10;99.90;;;;;;5016412;28;20026;-52
2021/05/18 14:39:00;;;;;;;40.42;38.00;;;10.10;99.90;;;;;;5016560;28;20018;-50
2021/05/18 14:44:03;;;;;;;41.85;39.13;;;10.00;99.90;;;;;;5016265;28;20261;-55
2021/05/18 14:57:09;;;;;;;41.85;38.95;;;9.90;99.90;;;;;;5016096;28;20367;-50
2021/05/18 14:59:36;;;;;;;42.75;40.03;;;9.90;99.90;;;;;;5016143;28;20026;-56
2021/05/18 15:02:04;;;;;;;41.67;38.83;;;9.80;99.90;;;;;;5015819;28;20105;-55
2021/05/18 15:04:34;;;;;;;41.72;38.75;;;9.80;99.90;;;;;;5015720;28;20398;-50
2021/05/18 15:07:05;;;;;;;43.45;40.70;;;9.80;99.90;;;;;;5015715;28;20069;-51
2021/05/18 15:09:34;;;;;;;44.35;41.78;;;9.80;99.90;;;;;;5015793;28;20030;-51
2021/05/18 15:12:01;;;;;;;43.80;41.08;;;9.70;99.90;;;;;;5015610;28;20029;-50
2021/05/18 15:14:28;;;;;;;45.60;42.63;;;9.70;99.90;;;;;;5015506;28;20204;-54
2021/05/18 15:16:56;;;;;;;45.63;42.83;;;9.70;99.90;;;;;;5015116;28;20072;-56
2021/05/18 15:19:25;;;;;;;46.10;43.40;;;9.70;99.90;;;;;;5015604;28;20038;-52
2021/05/18 15:21:52;;;;;;;44.38;41.58;;;9.70;99.90;;;;;;5015459;28;20394;-53
2021/05/18 15:24:20;;;;;;;45.50;42.45;;;9.60;99.90;;;;;;5015377;28;20022;-52
2021/05/18 15:26:48;;;;;;;43.80;40.85;;;9.60;99.90;;;;;;5015532;28;20029;-55
2021/05/18 15:29:15;;;;;;;45.28;42.25;;;9.60;99.90;;;;;;5015558;28;20022;-50
2021/05/18 15:31:43;;;;;;;45.22;42.22;;;9.60;99.90;;;;;;5014947;28;20125;-52
2021/05/18 15:34:10;;;;;;;43.05;40.25;;;9.60;99.90;;;;;;5015217;28;20482;-55
2021/05/18 15:36:39;;;;;;;45.22;42.22;;;9.60;99.90;;;;;;5015162;28;20025;-55
2021/05/18 15:39:07;;;;;;;46.90;43.65;;;9.60;99.90;;;;;;5015092;28;20077;-51
2021/05/18 15:41:34;;;;;;;42.05;39.20;;;9.60;99.90;;;;;;5015195;28;20088;-53
2021/05/18 15:44:03;;;;;;;43.85;41.10;;;9.50;99.90;;;;;;5015162;28;20084;-53
2021/05/18 15:46:31;;;;;;;48.20;45.30;;;9.50;99.90;;;;;;5015028;28;20041;-50
2021/05/18 15:48:58;;;;;;;48.78;45.63;;;9.50;99.90;;;;;;5015291;28;20037;-53
2021/05/18 15:51:26;;;;;;;48.13;44.92;;;9.50;99.90;;;;;;5014850;28;20442;-54
2021/05/18 15:53:53;;;;;;;49.58;46.38;;;9.50;99.90;;;;;;5014850;28;20080;-52
2021/05/18 15:56:22;;;;;;;49.63;46.20;;;9.50;99.90;;;;;;5014895;28;20070;-53
2021/05/18 15:58:50;;;;;;;46.72;43.78;;;9.40;99.90;;;;;;5014805;28;20029;-53
2021/05/18 16:01:17;;;;;;;50.15;46.92;;;9.40;99.90;;;;;;5014870;28;20026;-53
2021/05/18 16:03:44;;;;;;;51.05;47.55;;;9.40;99.90;;;;;;5014739;28;20394;-51
2021/05/18 16:06:12;;;;;;;49.20;46.13;;;9.40;99.90;;;;;;5014546;28;20021;-51
2021/05/18 16:11:09;;;;;;;50.25;46.95;;;9.40;99.90;;;;;;5014855;28;20101;-55
2021/05/18 16:13:39;;;;;;;47.00;43.90;;;9.30;99.90;;;;;;5014493;28;20037;-52
2021/05/18 16:16:12;;;;;;;48.38;45.42;;;9.30;99.90;;;;;;5014403;28;20471;-56
2021/05/18 16:18:40;;;;;;;48.75;45.65;;;9.30;99.90;;;;;;5014401;28;20032;-49
2021/05/18 16:21:09;;;;;;;49.25;46.45;;;9.20;99.90;;;;;;5014542;28;20030;-51
2021/05/18 16:23:40;;;;;;;47.55;44.85;;;9.20;99.90;;;;;;5014309;28;20435;-52
2021/05/18 16:26:09;;;;;;;50.90;47.78;;;9.20;99.90;;;;;;5014537;28;20479;-51
2021/05/18 16:28:37;;;;;;;48.40;45.35;;;9.20;99.90;;;;;;5013392;28;20034;-53
2021/05/18 16:31:08;;;;;;;47.05;43.95;;;9.30;99.90;;;;;;5014210;28;20037;-53
2021/05/18 16:33:37;;;;;;;50.53;47.33;;;9.30;99.90;;;;;;5014177;28;20064;-51
2021/05/18 16:36:06;;;;;;;47.42;44.22;;;9.40;99.90;;;;;;5014154;28;20394;-52
2021/05/18 16:38:34;;;;;;;48.05;44.83;;;9.40;99.90;;;;;;5014076;28;20363;-52
2021/05/18 16:41:01;;;;;;;51.20;47.90;;;9.50;99.90;;;;;;5013956;28;20049;-53
2021/05/18 16:43:29;;;;;;;48.58;45.28;;;9.50;99.90;;;;;;5014082;28;20022;-55
2021/05/18 16:45:57;;;;;;;49.35;46.15;;;9.40;99.90;;;;;;5014080;28;20036;-50
2021/05/18 16:48:27;;;;;;;53.15;49.85;;;9.40;99.90;;;;;;5014005;28;20021;-51
2021/05/18 16:50:56;;;;;;;51.90;48.65;;;9.30;99.90;;;;;;4996607;28;20403;-52
2021/05/18 16:53:24;;;;;;;50.40;47.17;;;9.30;99.90;;;;;;5013537;28;20060;-53
2021/05/18 16:55:51;;;;;;;50.47;47.17;;;9.30;99.90;;;;;;5013382;28;20037;-54
2021/05/18 16:58:20;;;;;;;51.55;48.05;;;9.30;99.90;;;;;;4995778;28;20042;-54
2021/05/18 17:00:48;;;;;;;49.58;46.00;;;9.30;99.90;;;;;;5013497;28;20501;-53
2021/05/18 17:03:16;;;;;;;50.55;47.25;;;9.40;99.90;;;;;;5013806;28;20100;-53
2021/05/18 17:05:43;;;;;;;51.75;48.35;;;9.40;99.90;;;;;;5013522;28;20032;-51
2021/05/18 17:08:10;;;;;;;52.22;48.80;;;9.40;99.90;;;;;;5013683;28;20033;-52
2021/05/18 17:10:40;;;;;;;53.92;50.53;;;9.40;99.90;;;;;;5013580;28;20068;-49
2021/05/18 17:13:08;;;;;;;53.10;49.53;;;9.40;99.90;;;;;;5013540;28;20045;-51
2021/05/18 17:15:36;;;;;;;51.80;48.42;;;9.30;99.90;;;;;;4996175;28;20022;-54
2021/05/18 17:18:04;;;;;;;50.33;47.42;;;9.20;99.90;;;;;;5013543;28;20041;-53
2021/05/18 17:20:34;;;;;;;53.53;50.20;;;9.20;99.90;;;;;;5013491;28;20490;-56
2021/05/18 17:23:03;;;;;;;52.80;49.65;;;9.20;99.90;;;;;;5013351;28;20128;-50
2021/05/18 17:25:30;;;;;;;48.92;45.85;;;9.10;99.90;;;;;;5013330;28;20042;-54
2021/05/18 17:27:58;;;;;;;51.35;48.08;;;9.10;99.90;;;;;;5013350;28;20060;-55
2021/05/18 17:30:27;;;;;;;49.13;46.03;;;9.00;99.90;;;;;;5013246;28;20038;-57
2021/05/18 17:32:55;;;;;;;47.78;44.58;;;8.90;99.90;;;;;;5013123;28;20060;-54
2021/05/18 17:35:24;;;;;;;48.90;45.92;;;8.80;99.90;;;;;;5013514;28;20026;-50
2021/05/18 17:37:52;;;;;;;51.03;48.03;;;9.00;99.90;;;;;;5013404;28;20022;-52
2021/05/18 17:40:20;;;;;;;51.67;48.53;;;9.20;99.90;;;;;;5013116;28;20080;-51
2021/05/18 17:42:48;;;;;;;49.20;46.20;;;9.30;99.90;;;;;;5013343;28;20430;-52
2021/05/18 17:45:16;;;;;;;50.15;46.97;;;9.30;99.90;;;;;;5013384;28;20030;-53
2021/05/18 17:47:45;;;;;;;48.90;45.90;;;9.20;99.90;;;;;;5013258;28;20037;-53
2021/05/18 17:50:15;;;;;;;47.72;44.63;;;9.20;99.90;;;;;;5013184;28;20033;-55
2021/05/18 17:52:43;;;;;;;50.42;47.42;;;9.20;99.90;;;;;;5012976;28;20390;-52
2021/05/18 17:55:13;;;;;;;51.38;48.47;;;9.10;99.90;;;;;;5013218;28;20109;-53
2021/05/18 17:57:41;;;;;;;48.47;45.45;;;9.10;99.90;;;;;;5013046;28;20026;-54
2021/05/18 18:00:10;;;;;;;50.25;47.25;;;9.00;99.90;;;;;;4995440;28;20073;-54